Galway Airport

EICM · Connaught, 爱尔兰

METAR EICM · Galway Airport

3 十二月 02:30 LT
18m
罗盘
风向 的 风向 250° Galway Airport 8/26
风: 2 kt, 1 beaufort

2 kt

改变
0 1.000 2.000 3.000 4.000 5.000
FEW 4.400 ft
BKN 5.000 ft
METAR EINN 030230Z 25002KT 9999 FEW044 BKN050 07/06 Q1027 NOSIG

METAR Galway Airport - EICM/GWY

Galway Airport是,爱尔兰中的中型机场。 该机场有一条跑道: 8/26. 该领域的国际民航组织标志是EICM 它的国际航空运输协会代码是GWY.

这份报告是针对2022年12月3日 02:30, 当地时间在香農機場进行的。

机场观察

风向为250°,速度为2 kt。

可见度为10 km 或者更多。

有几云在4.400 ft的高度 和 碎云在5.000 ft的高度。 破损或更高的上限为5.000 ft。

温度为7 °C,阵风为6 °C。 露点为6 °C,相对湿度为93%。 海平面上的气压为1027 hPa (QNH)。

白天

今天,太阳从08:30升起,在16:20降落。 这适用于Galway Airport,世界夏令时可能有所不同。 当地时间与世界标准时间之间的时差为+0 小时。 当前,没有夏令时有效。

公司介绍

我们没有关于这个机场的公司信息。

体会

到Vliegles.nl去找飞行课程,跳伞和其他飞行体验。 浏览页面,了解Galway Airport附近所有可用的活动。 你也可以使用搜索功能来寻找你所在地附近的特定飞行课程、跳伞或其他飞行体验。

跑道

Id 标题 侧风 逆风 侧风 %
8/26 075°-255° 2 kt 9 %

逆风成分最大的方向会被突出显示,并用于横风计算。 这并不一定意味着这个方向在使用。

乌云

4.400 ft FEW 几云
5.000 ft BKN 碎云

温度 & 天气

温度 7 °C
露点 6 °C
相对湿度 93%
风寒 6 °C
Kp-index 2 (0-9)

白天

日出
08:27 (5:39)
中午
12:25
日落
16:23

小工具

你想在你的网站上有一个关于Galway Airport的当前航空天气(METAR)的小部件吗?

显示HTML代码

我们和第三方通过cookies跟踪您在我们网站上的互联网行为。如果你继续,我们认为你同意我们的饼干政策